Time;durP1;ratioP1;P1;durP2;ratioP2;P2;SDS_P1;SDS_P2;PMS_P1;PMS_P2;Temp;Humidity;BMP_temperature;BMP_pressure;BME280_temperature;BME280_humidity;BME280_pressure;Samples;Min_cycle;Max_cycle;Signal;HPM_P1;HPM_P2
2021/08/15 00:02:16;;;;;;;0.00;0.00;;;16.00;99.90;;;;;;5112615;28;20042;-86
2021/08/15 00:04:42;;;;;;;0.38;0.20;;;16.00;99.90;;;;;;5112694;28;20474;-86
2021/08/15 00:07:10;;;;;;;0.05;0.05;;;16.00;99.90;;;;;;5129167;28;20146;-85
2021/08/15 00:09:37;;;;;;;0.10;0.00;;;16.00;99.90;;;;;;5113007;28;20032;-85
2021/08/15 00:12:08;;;;;;;0.10;0.10;;;16.10;99.90;;;;;;5128820;28;20055;-85
2021/08/15 00:14:35;;;;;;;0.22;0.20;;;16.10;99.90;;;;;;5129190;28;20126;-85
2021/08/15 00:17:03;;;;;;;0.17;0.17;;;16.10;99.90;;;;;;5128692;28;20067;-85
2021/08/15 00:19:30;;;;;;;0.10;0.10;;;16.10;99.90;;;;;;5112148;28;20032;-85
2021/08/15 00:21:57;;;;;;;0.10;0.10;;;16.00;99.90;;;;;;5128851;28;20051;-85
2021/08/15 00:24:24;;;;;;;0.25;0.25;;;16.00;99.90;;;;;;5112379;28;20497;-85
2021/08/15 00:26:51;;;;;;;0.00;0.00;;;16.00;99.90;;;;;;5129016;28;20089;-84
2021/08/15 00:29:17;;;;;;;0.10;0.03;;;16.00;99.90;;;;;;5111800;28;20216;-85
2021/08/15 00:31:44;;;;;;;0.00;0.00;;;16.00;99.90;;;;;;5095538;28;20049;-85
2021/08/15 00:34:11;;;;;;;0.93;0.32;;;15.90;99.90;;;;;;5128584;28;20119;-85
2021/08/15 00:36:38;;;;;;;0.10;0.10;;;15.90;99.90;;;;;;5111941;28;20039;-85
2021/08/15 00:39:05;;;;;;;0.47;0.43;;;15.90;99.90;;;;;;5128407;28;20036;-85
2021/08/15 00:41:32;;;;;;;0.00;0.00;;;15.90;99.90;;;;;;5129853;28;20043;-85
2021/08/15 00:44:01;;;;;;;0.00;0.00;;;15.90;99.90;;;;;;5128517;28;20051;-85
2021/08/15 00:46:29;;;;;;;0.10;0.10;;;15.90;99.90;;;;;;5128687;28;20036;-85
2021/08/15 00:48:56;;;;;;;0.32;0.20;;;15.90;99.90;;;;;;5128680;28;20097;-85
2021/08/15 00:51:24;;;;;;;0.00;0.00;;;15.90;99.90;;;;;;5128064;28;20038;-85
2021/08/15 00:53:51;;;;;;;0.00;0.00;;;15.80;99.90;;;;;;5128469;28;20040;-85
2021/08/15 00:56:18;;;;;;;0.03;0.03;;;15.90;99.90;;;;;;5111147;28;20538;-85
2021/08/15 00:58:45;;;;;;;0.32;0.30;;;15.90;99.90;;;;;;5128444;28;20061;-86
2021/08/15 01:01:12;;;;;;;0.00;0.00;;;15.90;99.90;;;;;;5127766;28;20495;-86
2021/08/15 01:03:39;;;;;;;0.65;0.20;;;15.90;99.90;;;;;;5128385;28;20488;-85
2021/08/15 01:06:08;;;;;;;0.00;0.00;;;16.00;99.90;;;;;;5111181;28;20062;-85
2021/08/15 01:08:39;;;;;;;0.15;0.08;;;15.90;99.90;;;;;;5128374;28;20040;-85
2021/08/15 01:11:09;;;;;;;0.08;0.08;;;16.00;99.90;;;;;;5127535;28;20036;-85
2021/08/15 01:13:38;;;;;;;0.20;0.10;;;16.00;99.90;;;;;;5127943;28;20044;-85
2021/08/15 01:16:07;;;;;;;0.00;0.00;;;16.00;99.90;;;;;;5127949;28;20039;-86
2021/08/15 01:18:36;;;;;;;0.00;0.00;;;16.00;99.90;;;;;;5127982;28;20055;-85
2021/08/15 01:21:08;;;;;;;0.00;0.00;;;16.00;99.90;;;;;;5127835;28;20177;-85
2021/08/15 01:23:38;;;;;;;0.00;0.00;;;16.00;99.90;;;;;;5128508;28;20121;-85
2021/08/15 01:26:06;;;;;;;0.00;0.00;;;16.00;99.90;;;;;;5127609;28;20392;-86
2021/08/15 01:28:33;;;;;;;0.25;0.17;;;16.00;99.90;;;;;;5127995;28;20392;-85
2021/08/15 01:31:00;;;;;;;0.30;0.17;;;16.00;99.90;;;;;;5128011;28;20029;-85
2021/08/15 01:33:35;;;;;;;0.08;0.08;;;16.00;99.90;;;;;;5127440;28;20039;-85
2021/08/15 01:36:04;;;;;;;0.00;0.00;;;16.10;99.90;;;;;;5127766;28;20120;-86
2021/08/15 01:38:33;;;;;;;0.00;0.00;;;16.10;99.90;;;;;;5110491;28;20047;-85
2021/08/15 01:41:01;;;;;;;0.10;0.10;;;16.10;99.90;;;;;;5127624;28;20036;-86
2021/08/15 01:43:28;;;;;;;0.57;0.40;;;16.00;99.90;;;;;;5127242;28;20127;-86
2021/08/15 01:45:55;;;;;;;0.30;0.30;;;16.00;99.90;;;;;;5110771;28;20504;-85
2021/08/15 01:48:22;;;;;;;0.00;0.00;;;16.00;99.90;;;;;;5126980;28;20046;-85
2021/08/15 01:50:50;;;;;;;0.10;0.10;;;16.00;99.90;;;;;;5110495;28;20166;-86
2021/08/15 01:53:21;;;;;;;0.00;0.00;;;16.10;99.90;;;;;;5109769;28;20089;-85
2021/08/15 01:55:48;;;;;;;0.10;0.10;;;16.00;99.90;;;;;;5127321;28;20066;-85
2021/08/15 01:58:15;;;;;;;0.00;0.00;;;16.10;99.90;;;;;;5127060;28;20036;-85
2021/08/15 02:00:44;;;;;;;0.13;0.13;;;16.10;99.90;;;;;;5110627;28;20122;-85
2021/08/15 02:03:11;;;;;;;0.00;0.00;;;16.00;99.90;;;;;;5126890;28;20036;-85
2021/08/15 02:05:40;;;;;;;0.08;0.08;;;16.10;99.90;;;;;;5110607;28;20134;-85
2021/08/15 02:08:07;;;;;;;0.00;0.00;;;16.10;99.90;;;;;;5127187;28;20056;-85
2021/08/15 02:10:35;;;;;;;0.00;0.00;;;16.10;99.90;;;;;;5110326;28;20071;-85
2021/08/15 02:13:04;;;;;;;0.00;0.00;;;16.00;99.90;;;;;;5126888;28;20072;-85
2021/08/15 02:15:31;;;;;;;0.63;0.40;;;16.00;99.90;;;;;;5127690;28;20538;-85
2021/08/15 02:18:00;;;;;;;0.00;0.00;;;16.00;99.90;;;;;;5110661;28;20131;-85
2021/08/15 02:20:29;;;;;;;0.28;0.13;;;15.90;99.90;;;;;;5109943;28;20038;-85
2021/08/15 02:22:57;;;;;;;0.10;0.10;;;15.90;99.90;;;;;;5127234;28;20036;-85
2021/08/15 02:25:25;;;;;;;0.00;0.00;;;15.90;99.90;;;;;;5126853;28;20040;-85
2021/08/15 02:27:52;;;;;;;0.00;0.00;;;15.90;99.90;;;;;;5128062;28;20028;-85
2021/08/15 02:30:21;;;;;;;0.00;0.00;;;15.90;99.90;;;;;;5126557;28;20036;-85
2021/08/15 02:32:49;;;;;;;0.40;0.10;;;15.90;99.90;;;;;;5127357;28;20093;-85
2021/08/15 02:35:17;;;;;;;0.00;0.00;;;15.90;99.90;;;;;;5109898;28;20412;-85
2021/08/15 02:37:46;;;;;;;0.10;0.10;;;15.80;99.90;;;;;;5109736;28;20062;-85
2021/08/15 02:40:15;;;;;;;0.00;0.00;;;15.90;99.90;;;;;;5109730;28;20048;-85
2021/08/15 02:42:44;;;;;;;0.00;0.00;;;15.90;99.90;;;;;;5126798;28;20043;-85
2021/08/15 02:45:13;;;;;;;0.03;0.03;;;15.80;99.90;;;;;;5093122;28;20158;-86
2021/08/15 02:47:40;;;;;;;0.00;0.00;;;15.90;99.90;;;;;;5127231;28;20044;-85
2021/08/15 02:50:08;;;;;;;0.00;0.00;;;15.90;99.90;;;;;;5130097;28;20106;-85
2021/08/15 02:52:36;;;;;;;0.70;0.57;;;15.90;99.90;;;;;;5130171;28;20122;-84
2021/08/15 02:55:03;;;;;;;0.00;0.00;;;15.90;99.90;;;;;;5130711;28;20459;-85
2021/08/15 02:57:30;;;;;;;0.00;0.00;;;15.80;99.90;;;;;;5130206;28;20162;-85
2021/08/15 02:59:57;;;;;;;0.00;0.00;;;15.80;99.90;;;;;;5114098;28;20123;-85
2021/08/15 03:02:24;;;;;;;0.00;0.00;;;15.80;99.90;;;;;;5113562;28;20399;-85
2021/08/15 03:04:51;;;;;;;0.00;0.00;;;15.80;99.90;;;;;;5131010;28;20036;-85
2021/08/15 03:07:19;;;;;;;0.00;0.00;;;15.80;99.90;;;;;;5113745;28;20061;-85
2021/08/15 03:09:46;;;;;;;0.00;0.00;;;15.80;99.90;;;;;;5130640;28;20028;-85
2021/08/15 03:12:13;;;;;;;0.00;0.00;;;15.80;99.90;;;;;;5130277;28;20052;-85
2021/08/15 03:14:40;;;;;;;0.45;0.30;;;15.80;99.90;;;;;;5130427;28;20391;-85
2021/08/15 03:17:08;;;;;;;0.00;0.00;;;15.90;99.90;;;;;;5113923;28;20036;-85
2021/08/15 03:19:36;;;;;;;0.00;0.00;;;15.90;99.90;;;;;;5130453;28;20404;-85
2021/08/15 03:22:04;;;;;;;0.00;0.00;;;15.90;99.90;;;;;;5130106;28;20043;-85
2021/08/15 03:24:34;;;;;;;0.00;0.00;;;15.90;99.90;;;;;;5130309;28;20082;-85
2021/08/15 03:27:01;;;;;;;0.00;0.00;;;15.90;99.90;;;;;;5136977;28;20035;-85
2021/08/15 03:29:28;;;;;;;0.00;0.00;;;15.90;99.90;;;;;;5151356;28;20415;-85
2021/08/15 03:31:55;;;;;;;0.05;0.00;;;15.90;99.90;;;;;;5150639;28;20036;-85
2021/08/15 03:34:22;;;;;;;0.45;0.22;;;15.90;99.90;;;;;;5116169;28;20487;-86
2021/08/15 03:36:49;;;;;;;0.00;0.00;;;15.90;99.90;;;;;;5116797;28;20040;-86
2021/08/15 03:39:17;;;;;;;0.10;0.00;;;15.90;99.90;;;;;;5133217;28;20043;-86
2021/08/15 03:41:44;;;;;;;0.22;0.10;;;15.90;99.90;;;;;;5134279;28;20043;-86
2021/08/15 03:44:11;;;;;;;0.00;0.00;;;15.90;99.90;;;;;;5133505;28;20054;-86
2021/08/15 03:46:40;;;;;;;0.00;0.00;;;15.90;99.90;;;;;;5149825;28;20036;-86
2021/08/15 03:49:07;;;;;;;0.05;0.05;;;16.00;99.90;;;;;;5133521;28;20054;-85
2021/08/15 03:51:34;;;;;;;0.10;0.10;;;15.90;99.90;;;;;;5116080;28;20138;-86
2021/08/15 03:54:01;;;;;;;0.00;0.00;;;16.00;99.90;;;;;;5116384;28;20127;-85
2021/08/15 03:56:29;;;;;;;0.00;0.00;;;16.00;99.90;;;;;;5116066;28;20559;-86
2021/08/15 03:58:55;;;;;;;0.00;0.00;;;16.00;99.90;;;;;;5116379;28;20122;-86
2021/08/15 04:01:23;;;;;;;0.10;0.10;;;16.00;99.90;;;;;;5115323;28;20539;-86
2021/08/15 04:03:49;;;;;;;0.00;0.00;;;16.00;99.90;;;;;;5132831;28;20039;-85
2021/08/15 04:06:21;;;;;;;0.00;0.00;;;16.00;99.90;;;;;;5132921;28;20035;-85
2021/08/15 04:08:51;;;;;;;0.00;0.00;;;16.00;99.90;;;;;;5133461;28;20036;-86
2021/08/15 04:11:19;;;;;;;0.00;0.00;;;16.00;99.90;;;;;;5149925;28;20028;-85
2021/08/15 04:13:46;;;;;;;0.00;0.00;;;16.10;99.90;;;;;;5149476;28;20083;-85
2021/08/15 04:16:13;;;;;;;0.00;0.00;;;16.10;99.90;;;;;;5149365;28;20087;-86
2021/08/15 04:18:41;;;;;;;0.05;0.05;;;16.10;99.90;;;;;;5132020;28;20035;-85
2021/08/15 04:21:07;;;;;;;0.10;0.10;;;16.10;99.90;;;;;;5132169;28;20036;-85
2021/08/15 04:23:35;;;;;;;0.10;0.10;;;16.00;99.90;;;;;;5115385;28;20361;-86
2021/08/15 04:26:04;;;;;;;0.00;0.00;;;16.00;99.90;;;;;;5149591;28;20076;-85
2021/08/15 04:28:31;;;;;;;0.00;0.00;;;16.00;99.90;;;;;;5149003;28;20036;-85
2021/08/15 04:30:58;;;;;;;0.10;0.10;;;16.00;99.90;;;;;;5132741;28;20039;-85
2021/08/15 04:33:25;;;;;;;0.00;0.00;;;16.00;99.90;;;;;;5115124;28;20039;-85
2021/08/15 04:35:53;;;;;;;0.85;0.30;;;15.90;99.90;;;;;;5132577;28;20036;-85
2021/08/15 04:38:21;;;;;;;0.00;0.00;;;15.90;99.90;;;;;;5132489;28;20152;-84
2021/08/15 04:40:50;;;;;;;0.00;0.00;;;15.90;99.90;;;;;;5148762;28;20092;-85
2021/08/15 04:43:20;;;;;;;0.00;0.00;;;15.90;99.90;;;;;;5149173;28;20521;-85
2021/08/15 04:45:54;;;;;;;0.10;0.10;;;15.90;99.90;;;;;;5133557;28;20126;-86
2021/08/15 04:48:22;;;;;;;0.00;0.00;;;15.90;99.90;;;;;;5115747;28;20043;-85
2021/08/15 04:50:52;;;;;;;0.00;0.00;;;15.90;99.90;;;;;;5132470;28;20119;-85
2021/08/15 04:53:19;;;;;;;0.00;0.00;;;15.90;99.90;;;;;;5131604;28;20122;-85
2021/08/15 04:55:46;;;;;;;0.00;0.00;;;16.00;99.90;;;;;;5131562;28;20039;-86
2021/08/15 04:58:13;;;;;;;0.32;0.25;;;16.00;99.90;;;;;;5132087;28;20049;-85
2021/08/15 05:00:40;;;;;;;0.00;0.00;;;16.00;99.90;;;;;;5114778;28;20032;-84
2021/08/15 05:03:08;;;;;;;0.00;0.00;;;16.00;99.90;;;;;;5132195;28;20391;-85
2021/08/15 05:05:38;;;;;;;0.00;0.00;;;15.90;99.90;;;;;;5114554;28;20123;-85
2021/08/15 05:08:05;;;;;;;0.03;0.03;;;15.90;99.90;;;;;;5148828;28;20468;-86
2021/08/15 05:10:34;;;;;;;0.08;0.08;;;15.90;99.90;;;;;;5131535;28;20032;-86
2021/08/15 05:13:01;;;;;;;0.00;0.00;;;15.90;99.90;;;;;;5130663;28;20055;-86
2021/08/15 05:15:31;;;;;;;0.10;0.10;;;15.90;99.90;;;;;;5131692;28;20377;-86
2021/08/15 05:17:59;;;;;;;0.00;0.00;;;15.90;99.90;;;;;;5131902;28;20032;-86
2021/08/15 05:20:26;;;;;;;0.00;0.00;;;15.80;99.90;;;;;;5131601;28;20036;-86
2021/08/15 05:22:57;;;;;;;0.00;0.00;;;15.80;99.90;;;;;;5115606;28;20039;-86
2021/08/15 05:25:25;;;;;;;0.00;0.00;;;15.90;99.90;;;;;;5131594;28;20050;-86
2021/08/15 05:27:51;;;;;;;0.00;0.00;;;15.90;99.90;;;;;;5130999;28;20042;-85
2021/08/15 05:30:18;;;;;;;0.08;0.08;;;15.90;99.90;;;;;;5131313;28;20505;-85
2021/08/15 05:32:45;;;;;;;0.00;0.00;;;15.90;99.90;;;;;;5130888;28;20039;-85
2021/08/15 05:35:13;;;;;;;0.20;0.20;;;15.90;99.90;;;;;;5131093;28;20042;-85
2021/08/15 05:37:40;;;;;;;0.00;0.00;;;16.00;99.90;;;;;;5130652;28;20027;-85
2021/08/15 05:40:08;;;;;;;0.00;0.00;;;16.00;99.90;;;;;;5131058;28;20031;-85
2021/08/15 05:42:35;;;;;;;0.08;0.08;;;16.10;99.90;;;;;;5130775;28;20047;-85
2021/08/15 05:45:02;;;;;;;0.00;0.00;;;16.10;99.90;;;;;;5148070;28;20096;-86
2021/08/15 05:47:29;;;;;;;0.00;0.00;;;16.20;99.90;;;;;;5098373;28;20189;-86
2021/08/15 05:49:56;;;;;;;0.00;0.00;;;16.20;99.90;;;;;;5130784;28;20114;-85
2021/08/15 05:52:24;;;;;;;0.00;0.00;;;16.30;99.90;;;;;;5114233;28;20468;-85
2021/08/15 05:54:51;;;;;;;0.00;0.00;;;16.40;99.90;;;;;;5147565;28;20469;-86
2021/08/15 05:57:19;;;;;;;0.00;0.00;;;16.40;99.90;;;;;;5123096;28;20473;-85
2021/08/15 05:59:45;;;;;;;0.00;0.00;;;16.50;99.90;;;;;;5141219;28;20039;-85
2021/08/15 06:02:12;;;;;;;0.00;0.00;;;16.60;99.90;;;;;;5113965;28;20036;-85
2021/08/15 06:04:39;;;;;;;0.00;0.00;;;16.70;99.90;;;;;;5113818;28;20039;-86
2021/08/15 06:07:06;;;;;;;0.05;0.00;;;16.70;99.90;;;;;;5113982;28;20080;-85
2021/08/15 06:09:32;;;;;;;0.00;0.00;;;16.70;99.90;;;;;;5114010;28;20480;-86
2021/08/15 06:12:05;;;;;;;0.00;0.00;;;16.70;99.90;;;;;;5113738;28;20064;-86
2021/08/15 06:14:33;;;;;;;0.00;0.00;;;16.80;99.90;;;;;;5148940;28;20035;-86
2021/08/15 06:17:00;;;;;;;0.05;0.05;;;16.70;99.90;;;;;;5131720;28;20115;-87
2021/08/15 06:19:27;;;;;;;0.10;0.10;;;16.80;99.90;;;;;;5130820;28;20043;-87
2021/08/15 06:21:53;;;;;;;0.00;0.00;;;16.80;99.90;;;;;;5110915;28;20036;-87
2021/08/15 06:24:20;;;;;;;0.00;0.00;;;16.80;99.90;;;;;;5127898;28;20488;-87
2021/08/15 06:26:47;;;;;;;0.13;0.10;;;16.90;99.90;;;;;;5094044;28;20051;-87
2021/08/15 06:29:14;;;;;;;0.00;0.00;;;16.90;99.90;;;;;;5111230;28;20032;-87
2021/08/15 06:31:41;;;;;;;0.08;0.08;;;16.90;99.90;;;;;;5084817;28;20097;-88
2021/08/15 06:34:07;;;;;;;0.00;0.00;;;16.90;99.90;;;;;;5131251;28;20043;-87
2021/08/15 06:36:34;;;;;;;0.00;0.00;;;16.90;99.90;;;;;;5131032;28;20036;-86
2021/08/15 06:39:01;;;;;;;0.00;0.00;;;16.90;99.90;;;;;;5114252;28;20035;-88
2021/08/15 06:41:28;;;;;;;0.25;0.15;;;16.90;99.90;;;;;;5110584;28;20036;-87
2021/08/15 06:43:54;;;;;;;0.00;0.00;;;16.90;99.90;;;;;;5125108;28;20060;-89
2021/08/15 06:46:21;;;;;;;0.10;0.10;;;17.00;99.90;;;;;;5131254;28;20039;-88
2021/08/15 06:48:49;;;;;;;0.00;0.00;;;17.00;99.90;;;;;;5113424;28;20035;-88
2021/08/15 06:51:16;;;;;;;0.00;0.00;;;17.10;99.90;;;;;;5114457;28;20059;-89
2021/08/15 06:53:43;;;;;;;0.05;0.05;;;17.10;99.90;;;;;;5147447;28;20039;-89
2021/08/15 06:56:11;;;;;;;0.10;0.03;;;17.20;99.90;;;;;;5111140;28;20052;-92
2021/08/15 06:58:38;;;;;;;0.00;0.00;;;17.20;99.90;;;;;;5114842;28;20119;-90
2021/08/15 07:01:05;;;;;;;0.00;0.00;;;17.20;99.90;;;;;;5127942;28;20116;-88
2021/08/15 07:03:32;;;;;;;0.00;0.00;;;17.30;99.90;;;;;;5127657;28;20040;-88
2021/08/15 07:06:00;;;;;;;0.25;0.10;;;17.30;99.90;;;;;;5127570;28;20051;-87
2021/08/15 07:08:27;;;;;;;0.00;0.00;;;17.40;99.90;;;;;;5094188;28;20105;-89
2021/08/15 07:10:54;;;;;;;0.00;0.00;;;17.30;99.90;;;;;;5144376;28;20032;-89
2021/08/15 07:13:22;;;;;;;0.22;0.20;;;17.40;99.90;;;;;;5127313;28;20056;-89
2021/08/15 07:15:50;;;;;;;0.10;0.10;;;17.40;99.90;;;;;;5110509;28;20039;-88
2021/08/15 07:18:18;;;;;;;0.10;0.10;;;17.50;99.90;;;;;;5111032;28;20040;-86
2021/08/15 07:20:46;;;;;;;0.47;0.20;;;17.60;99.90;;;;;;5143686;28;20036;-86
2021/08/15 07:23:13;;;;;;;0.00;0.00;;;17.70;99.90;;;;;;5126928;28;20043;-85
2021/08/15 07:25:40;;;;;;;0.55;0.35;;;17.80;99.90;;;;;;5110138;28;20395;-87
2021/08/15 07:28:07;;;;;;;0.00;0.00;;;17.90;99.90;;;;;;5126715;28;20040;-89
2021/08/15 07:30:34;;;;;;;0.00;0.00;;;18.00;99.90;;;;;;5110937;28;20096;-89
2021/08/15 07:33:04;;;;;;;0.00;0.00;;;18.10;99.90;;;;;;5112519;28;20039;-86
2021/08/15 07:35:34;;;;;;;0.00;0.00;;;18.10;99.90;;;;;;5147542;28;20036;-87
2021/08/15 07:38:01;;;;;;;0.05;0.05;;;18.20;99.90;;;;;;5150895;28;20116;-90
2021/08/15 07:40:28;;;;;;;0.60;0.40;;;18.20;99.90;;;;;;5151076;28;20028;-87
2021/08/15 07:42:56;;;;;;;0.05;0.00;;;18.20;99.90;;;;;;5129555;27;20042;-84
2021/08/15 07:45:28;;;;;;;0.00;0.00;;;18.30;99.90;;;;;;5137182;27;20511;-87
2021/08/15 07:47:55;;;;;;;0.00;0.00;;;18.50;99.90;;;;;;5171268;27;20035;-87
2021/08/15 07:50:23;;;;;;;0.00;0.00;;;18.50;99.90;;;;;;5154456;27;20102;-84
2021/08/15 07:52:49;;;;;;;0.00;0.00;;;18.60;99.90;;;;;;5170479;27;20050;-85
2021/08/15 07:55:16;;;;;;;0.10;0.10;;;18.60;99.90;;;;;;5131948;28;20031;-84
2021/08/15 07:57:43;;;;;;;0.08;0.08;;;18.60;99.90;;;;;;5116396;28;20055;-84
2021/08/15 08:00:12;;;;;;;0.10;0.10;;;18.60;99.90;;;;;;5116347;28;20039;-88
2021/08/15 08:02:40;;;;;;;0.00;0.00;;;18.60;99.90;;;;;;5150344;28;20093;-90
2021/08/15 08:05:07;;;;;;;0.10;0.03;;;18.70;99.90;;;;;;5149637;28;20479;-85
2021/08/15 08:07:34;;;;;;;0.00;0.00;;;18.80;99.90;;;;;;5133512;28;20115;-84
2021/08/15 08:10:01;;;;;;;0.00;0.00;;;19.00;99.90;;;;;;5149766;28;20067;-86
2021/08/15 08:12:28;;;;;;;0.00;0.00;;;19.10;99.90;;;;;;5133273;28;20047;-88
2021/08/15 08:14:55;;;;;;;0.00;0.00;;;19.10;99.90;;;;;;5116372;28;20047;-87
2021/08/15 08:17:22;;;;;;;0.00;0.00;;;19.20;99.90;;;;;;5113125;28;20067;-88
2021/08/15 08:19:48;;;;;;;0.00;0.00;;;19.30;99.90;;;;;;5097025;28;20048;-89
2021/08/15 08:22:15;;;;;;;0.00;0.00;;;19.40;99.90;;;;;;5112837;28;20040;-88
2021/08/15 08:24:42;;;;;;;0.50;0.40;;;19.50;99.90;;;;;;5115542;28;20123;-86
2021/08/15 08:27:09;;;;;;;10.07;0.32;;;19.60;99.90;;;;;;5132626;28;20035;-88
2021/08/15 08:29:36;;;;;;;0.00;0.00;;;19.80;99.90;;;;;;5133442;28;20403;-87
2021/08/15 08:32:06;;;;;;;0.10;0.10;;;19.80;99.90;;;;;;5149856;28;20046;-88
2021/08/15 08:34:33;;;;;;;0.15;0.00;;;19.90;99.90;;;;;;5150262;28;20486;-86
2021/08/15 08:37:00;;;;;;;0.00;0.00;;;20.00;99.90;;;;;;5132873;28;20067;-85
2021/08/15 08:39:29;;;;;;;0.00;0.00;;;20.10;99.90;;;;;;5116257;28;20050;-85
2021/08/15 08:42:00;;;;;;;0.00;0.00;;;20.30;99.90;;;;;;5100062;28;20377;-86
2021/08/15 08:44:31;;;;;;;0.30;0.20;;;20.40;99.90;;;;;;5149685;28;20119;-84
2021/08/15 08:47:04;;;;;;;0.00;0.00;;;20.50;99.90;;;;;;5115667;28;20040;-85
2021/08/15 08:49:37;;;;;;;0.55;0.25;;;20.60;99.90;;;;;;5132987;28;20049;-84
2021/08/15 08:52:05;;;;;;;0.60;0.13;;;20.60;99.90;;;;;;5150313;28;20039;-84
2021/08/15 08:54:32;;;;;;;0.50;0.28;;;20.80;99.90;;;;;;5115768;28;20073;-82
2021/08/15 08:56:59;;;;;;;0.00;0.00;;;20.90;99.90;;;;;;5131827;28;20031;-83
2021/08/15 08:59:26;;;;;;;0.10;0.10;;;20.90;99.90;;;;;;5148772;28;20039;-83
2021/08/15 09:01:54;;;;;;;1.33;0.30;;;20.90;99.90;;;;;;5115340;28;20044;-84
2021/08/15 09:04:22;;;;;;;1.38;0.17;;;21.20;99.90;;;;;;5148779;28;20053;-84
2021/08/15 09:06:48;;;;;;;0.25;0.10;;;21.20;99.90;;;;;;5131715;28;20036;-85
2021/08/15 09:16:11;;;;;;;;;;;21.50;99.90;;;;;;5076008;24;20051;-82
2021/08/15 09:18:38;;;;;;;0.00;0.00;;;21.60;99.90;;;;;;4821811;29;19921;-82
2021/08/15 09:21:11;;;;;;;0.20;0.20;;;21.60;99.90;;;;;;4820387;29;20157;-83
2021/08/15 09:23:40;;;;;;;0.17;0.17;;;21.60;99.90;;;;;;4820995;30;20132;-83
2021/08/15 09:26:19;;;;;;;0.45;0.35;;;21.70;99.90;;;;;;4821166;29;20043;-84
2021/08/15 09:28:48;;;;;;;0.40;0.40;;;21.70;99.90;;;;;;4821680;29;20047;-84
2021/08/15 09:31:34;;;;;;;0.22;0.20;;;21.80;99.90;;;;;;4805476;30;20043;-81
2021/08/15 09:34:02;;;;;;;0.32;0.30;;;21.80;99.90;;;;;;4819860;30;20184;-79
2021/08/15 09:36:49;;;;;;;0.52;0.20;;;21.90;99.90;;;;;;4805622;30;20044;-85
2021/08/15 09:39:33;;;;;;;0.20;0.20;;;21.90;99.90;;;;;;4819929;30;20130;-81
2021/08/15 09:42:00;;;;;;;0.00;0.00;;;22.10;99.90;;;;;;4820128;30;20043;-82
2021/08/15 09:44:29;;;;;;;0.20;0.10;;;22.20;99.90;;;;;;4805395;30;20039;-83
2021/08/15 09:47:00;;;;;;;0.43;0.28;;;22.20;99.90;;;;;;4820325;29;20039;-84
2021/08/15 09:49:42;;;;;;;0.25;0.17;;;22.40;99.90;;;;;;4821066;29;20050;-84
2021/08/15 09:52:17;;;;;;;0.00;0.00;;;22.50;99.90;;;;;;4824586;29;20115;-83
2021/08/15 09:55:00;;;;;;;0.20;0.20;;;22.70;99.90;;;;;;4813607;30;20039;-83
2021/08/15 09:57:35;;;;;;;0.30;0.30;;;22.80;99.90;;;;;;4834497;29;20046;-85
2021/08/15 10:00:05;;;;;;;0.35;0.30;;;22.90;99.90;;;;;;4822270;29;20043;-83
2021/08/15 10:02:33;;;;;;;0.20;0.15;;;22.90;99.90;;;;;;4838107;29;20046;-83
2021/08/15 10:05:00;;;;;;;0.47;0.25;;;23.00;99.90;;;;;;4817353;29;20077;-83
2021/08/15 10:07:29;;;;;;;0.05;0.05;;;23.10;99.90;;;;;;4805502;29;20082;-82
2021/08/15 10:09:57;;;;;;;0.43;0.30;;;23.20;99.90;;;;;;4833199;29;20073;-82
2021/08/15 10:12:24;;;;;;;0.38;0.22;;;23.40;99.90;;;;;;4808006;30;20053;-83
2021/08/15 10:14:51;;;;;;;1.08;0.50;;;23.50;99.90;;;;;;4816559;29;20047;-84
2021/08/15 10:17:19;;;;;;;0.10;0.10;;;23.60;99.90;;;;;;4800990;30;20079;-81
2021/08/15 10:19:57;;;;;;;0.20;0.20;;;23.70;99.90;;;;;;4816466;29;20047;-84
2021/08/15 10:22:32;;;;;;;0.10;0.10;;;23.70;99.90;;;;;;4827237;29;20044;-83
2021/08/15 10:25:01;;;;;;;;;;;23.70;99.90;;;;;;4818054;30;20373;-82
2021/08/15 10:27:42;;;;;;;0.10;0.10;;;23.90;99.90;;;;;;4815285;29;19929;-82
2021/08/15 10:30:21;;;;;;;1.35;0.55;;;24.00;99.90;;;;;;4827705;29;20051;-80
2021/08/15 10:33:15;;;;;;;0.22;0.13;;;24.20;99.90;;;;;;4802449;30;20046;-82
2021/08/15 10:36:05;;;;;;;0.47;0.35;;;24.30;99.90;;;;;;4801462;30;20052;-85
2021/08/15 10:38:32;;;;;;;0.22;0.22;;;24.30;99.90;;;;;;4816189;30;20096;-83
2021/08/15 10:40:59;;;;;;;0.63;0.32;;;24.40;99.90;;;;;;4801409;30;20044;-84
2021/08/15 10:43:25;;;;;;;0.85;0.57;;;24.30;99.90;;;;;;4786223;30;20485;-81
2021/08/15 10:46:15;;;;;;;0.05;0.05;;;24.40;99.90;;;;;;4802211;30;20054;-81
2021/08/15 10:49:04;;;;;;;0.20;0.20;;;24.50;99.90;;;;;;4802313;30;20044;-81
2021/08/15 10:51:49;;;;;;;0.10;0.10;;;24.50;99.90;;;;;;4815895;30;20044;-81
2021/08/15 10:54:29;;;;;;;1.50;0.77;;;24.60;99.90;;;;;;4800614;30;20044;-81
2021/08/15 10:57:02;;;;;;;0.30;0.30;;;24.60;99.90;;;;;;4801207;30;20476;-78
2021/08/15 10:59:40;;;;;;;0.70;0.43;;;24.50;99.90;;;;;;4830117;29;20039;-81
2021/08/15 11:02:16;;;;;;;0.47;0.22;;;24.60;99.90;;;;;;4804479;30;20067;-79
2021/08/15 11:05:00;;;;;;;0.40;0.30;;;24.80;99.90;;;;;;4819284;30;20053;-82
2021/08/15 11:07:53;;;;;;;0.25;0.17;;;24.80;99.90;;;;;;4819028;30;20122;-81
2021/08/15 11:10:20;;;;;;;0.32;0.22;;;24.70;99.90;;;;;;4801482;30;20051;-81
2021/08/15 11:13:12;;;;;;;0.30;0.20;;;24.70;99.90;;;;;;4823835;30;20404;-81
2021/08/15 11:15:39;;;;;;;0.60;0.22;;;24.50;99.90;;;;;;4822426;29;20504;-82
2021/08/15 11:18:10;;;;;;;0.43;0.20;;;24.40;99.90;;;;;;4792950;30;20047;-83
2021/08/15 11:20:47;;;;;;;0.20;0.15;;;24.10;99.90;;;;;;4808005;30;20055;-82
2021/08/15 11:23:16;;;;;;;0.10;0.10;;;23.90;99.90;;;;;;4807329;30;20096;-86
2021/08/15 11:25:45;;;;;;;0.10;0.10;;;24.00;99.90;;;;;;4822578;29;20096;-82
2021/08/15 11:28:13;;;;;;;0.05;0.05;;;24.20;99.90;;;;;;4818616;29;20516;-80
2021/08/15 11:30:40;;;;;;;1.00;0.68;;;24.20;99.90;;;;;;4789644;30;20048;-80
2021/08/15 11:33:09;;;;;;;1.15;0.63;;;24.30;99.90;;;;;;4804253;30;20059;-82
2021/08/15 11:35:43;;;;;;;0.20;0.20;;;24.40;99.90;;;;;;4804021;30;20115;-81
2021/08/15 11:38:13;;;;;;;0.43;0.25;;;24.40;99.90;;;;;;4804305;30;20118;-81
2021/08/15 11:40:53;;;;;;;0.70;0.55;;;24.30;99.90;;;;;;4821898;29;20051;-80
2021/08/15 11:43:23;;;;;;;0.70;0.45;;;24.10;99.90;;;;;;4821421;30;20050;-80
2021/08/15 11:45:55;;;;;;;4.20;0.88;;;24.30;99.90;;;;;;4823015;29;20040;-81
2021/08/15 11:48:26;;;;;;;0.30;0.30;;;24.50;99.90;;;;;;4821436;30;20381;-80
2021/08/15 11:50:56;;;;;;;0.68;0.52;;;24.70;99.90;;;;;;4823169;29;20043;-81
2021/08/15 11:53:30;;;;;;;0.77;0.50;;;24.80;99.90;;;;;;4821232;30;20052;-80
2021/08/15 11:55:59;;;;;;;0.47;0.35;;;24.70;99.90;;;;;;4823053;29;20119;-81
2021/08/15 11:58:25;;;;;;;0.65;0.40;;;24.80;99.90;;;;;;4821509;30;20510;-80
2021/08/15 12:00:52;;;;;;;0.10;0.10;;;24.90;99.90;;;;;;4792054;30;20075;-81
2021/08/15 12:03:21;;;;;;;0.77;0.43;;;25.00;99.90;;;;;;4791731;30;20051;-81
2021/08/15 12:05:52;;;;;;;0.63;0.45;;;24.90;99.90;;;;;;4821562;29;20502;-81
2021/08/15 12:08:21;;;;;;;0.05;0.05;;;25.10;99.90;;;;;;4821105;30;20108;-79
2021/08/15 12:10:53;;;;;;;0.52;0.30;;;25.30;99.90;;;;;;4806597;30;20047;-80
2021/08/15 12:13:32;;;;;;;0.55;0.40;;;25.50;99.90;;;;;;4820957;30;20074;-79
2021/08/15 12:15:58;;;;;;;0.20;0.20;;;25.50;99.90;;;;;;4821236;29;20091;-80
2021/08/15 12:18:49;;;;;;;0.65;0.40;;;25.30;99.90;;;;;;4820968;30;20078;-81
2021/08/15 12:21:19;;;;;;;0.98;0.40;;;25.10;99.90;;;;;;4820889;29;20377;-80
2021/08/15 12:24:06;;;;;;;0.57;0.28;;;24.90;99.90;;;;;;4821510;30;20148;-81
2021/08/15 12:26:57;;;;;;;0.70;0.30;;;25.00;99.90;;;;;;4821968;30;20051;-80
2021/08/15 12:29:35;;;;;;;1.77;0.85;;;25.10;99.90;;;;;;4820694;30;20069;-80
2021/08/15 12:32:10;;;;;;;0.40;0.30;;;25.20;99.90;;;;;;4822281;29;20043;-80
2021/08/15 12:34:41;;;;;;;0.35;0.35;;;25.10;99.90;;;;;;4820561;30;20054;-80
2021/08/15 12:37:22;;;;;;;1.23;0.60;;;25.00;99.90;;;;;;4822245;30;20119;-80
2021/08/15 12:40:10;;;;;;;1.40;0.77;;;25.10;99.90;;;;;;4821368;30;20412;-79
2021/08/15 12:42:39;;;;;;;0.22;0.20;;;25.00;99.90;;;;;;4821651;29;20386;-80
2021/08/15 12:45:11;;;;;;;0.30;0.30;;;25.10;99.90;;;;;;4820768;30;20039;-80
2021/08/15 12:47:41;;;;;;;0.40;0.32;;;25.20;99.90;;;;;;4820406;30;20089;-80
2021/08/15 12:50:16;;;;;;;0.43;0.40;;;25.20;99.90;;;;;;4820987;29;20106;-80
2021/08/15 12:52:51;;;;;;;0.25;0.25;;;25.30;99.90;;;;;;4820266;30;20051;-80
2021/08/15 12:55:19;;;;;;;0.38;0.20;;;25.40;99.90;;;;;;4820763;29;20392;-81
2021/08/15 12:58:06;;;;;;;0.20;0.10;;;25.20;99.90;;;;;;4820309;30;20043;-81
2021/08/15 13:00:40;;;;;;;0.10;0.10;;;25.20;99.90;;;;;;4821084;29;20055;-80
2021/08/15 13:03:08;;;;;;;0.10;0.10;;;25.30;99.90;;;;;;4821824;29;20051;-81
2021/08/15 13:05:37;;;;;;;0.80;0.57;;;25.40;99.90;;;;;;4805196;30;20405;-80
2021/08/15 13:08:05;;;;;;;1.23;0.75;;;25.60;99.90;;;;;;4821924;29;20047;-80